sensor_id;sensor_type;location;lat;lon;timestamp;P1;durP1;ratioP1;P2;durP2;ratioP2
30571;SDS011;17348;50.948;10.696;2023-05-29T00:00:09;16.17;;;6.20;;
30571;SDS011;17348;50.948;10.696;2023-05-29T00:03:13;15.40;;;6.18;;
30571;SDS011;17348;50.948;10.696;2023-05-29T00:06:17;14.88;;;5.78;;
30571;SDS011;17348;50.948;10.696;2023-05-29T00:09:20;14.90;;;5.28;;
30571;SDS011;17348;50.948;10.696;2023-05-29T00:12:22;16.60;;;5.35;;
30571;SDS011;17348;50.948;10.696;2023-05-29T00:15:25;10.27;;;5.32;;
30571;SDS011;17348;50.948;10.696;2023-05-29T00:18:27;15.73;;;5.50;;
30571;SDS011;17348;50.948;10.696;2023-05-29T00:21:31;16.08;;;5.95;;
30571;SDS011;17348;50.948;10.696;2023-05-29T00:24:33;11.30;;;4.90;;
30571;SDS011;17348;50.948;10.696;2023-05-29T00:27:35;14.75;;;5.80;;
30571;SDS011;17348;50.948;10.696;2023-05-29T00:30:38;15.05;;;5.25;;
30571;SDS011;17348;50.948;10.696;2023-05-29T00:33:40;11.57;;;5.30;;
30571;SDS011;17348;50.948;10.696;2023-05-29T00:36:44;8.68;;;4.95;;
30571;SDS011;17348;50.948;10.696;2023-05-29T00:39:46;15.48;;;5.80;;
30571;SDS011;17348;50.948;10.696;2023-05-29T00:42:49;16.20;;;5.25;;
30571;SDS011;17348;50.948;10.696;2023-05-29T00:45:51;13.80;;;5.97;;
30571;SDS011;17348;50.948;10.696;2023-05-29T00:48:53;15.85;;;5.18;;
30571;SDS011;17348;50.948;10.696;2023-05-29T00:51:57;14.00;;;5.28;;
30571;SDS011;17348;50.948;10.696;2023-05-29T00:54:59;12.07;;;5.13;;
30571;SDS011;17348;50.948;10.696;2023-05-29T00:58:03;19.38;;;5.57;;
30571;SDS011;17348;50.948;10.696;2023-05-29T01:01:06;10.68;;;4.85;;
30571;SDS011;17348;50.948;10.696;2023-05-29T01:04:09;8.45;;;4.60;;
30571;SDS011;17348;50.948;10.696;2023-05-29T01:07:14;17.50;;;5.18;;
30571;SDS011;17348;50.948;10.696;2023-05-29T01:10:16;13.13;;;5.47;;
30571;SDS011;17348;50.948;10.696;2023-05-29T01:13:19;11.48;;;4.93;;
30571;SDS011;17348;50.948;10.696;2023-05-29T01:16:29;12.52;;;5.07;;
30571;SDS011;17348;50.948;10.696;2023-05-29T01:19:44;12.52;;;5.60;;
30571;SDS011;17348;50.948;10.696;2023-05-29T01:23:06;16.30;;;5.68;;
30571;SDS011;17348;50.948;10.696;2023-05-29T01:26:11;12.35;;;4.50;;
30571;SDS011;17348;50.948;10.696;2023-05-29T01:29:41;10.70;;;4.60;;
30571;SDS011;17348;50.948;10.696;2023-05-29T01:32:45;9.98;;;5.00;;
30571;SDS011;17348;50.948;10.696;2023-05-29T01:35:47;13.32;;;5.30;;
30571;SDS011;17348;50.948;10.696;2023-05-29T01:38:50;9.50;;;4.72;;
30571;SDS011;17348;50.948;10.696;2023-05-29T01:41:53;11.13;;;5.55;;
30571;SDS011;17348;50.948;10.696;2023-05-29T01:44:58;12.07;;;5.47;;
30571;SDS011;17348;50.948;10.696;2023-05-29T01:48:04;10.65;;;5.10;;
30571;SDS011;17348;50.948;10.696;2023-05-29T01:51:07;14.77;;;5.97;;
30571;SDS011;17348;50.948;10.696;2023-05-29T01:54:11;12.43;;;5.25;;
30571;SDS011;17348;50.948;10.696;2023-05-29T01:57:14;11.02;;;5.10;;
30571;SDS011;17348;50.948;10.696;2023-05-29T02:00:18;15.30;;;6.05;;
30571;SDS011;17348;50.948;10.696;2023-05-29T02:03:21;12.48;;;4.93;;
30571;SDS011;17348;50.948;10.696;2023-05-29T02:06:25;12.45;;;5.35;;
30571;SDS011;17348;50.948;10.696;2023-05-29T02:09:28;12.25;;;4.90;;
30571;SDS011;17348;50.948;10.696;2023-05-29T02:12:31;13.25;;;4.97;;
30571;SDS011;17348;50.948;10.696;2023-05-29T02:15:34;16.92;;;5.70;;
30571;SDS011;17348;50.948;10.696;2023-05-29T02:18:37;9.63;;;4.22;;
30571;SDS011;17348;50.948;10.696;2023-05-29T02:21:39;10.27;;;4.72;;
30571;SDS011;17348;50.948;10.696;2023-05-29T02:24:42;12.90;;;5.05;;
30571;SDS011;17348;50.948;10.696;2023-05-29T02:27:44;11.68;;;4.72;;
30571;SDS011;17348;50.948;10.696;2023-05-29T02:30:48;8.75;;;4.93;;
30571;SDS011;17348;50.948;10.696;2023-05-29T02:33:50;12.32;;;5.13;;
30571;SDS011;17348;50.948;10.696;2023-05-29T02:36:53;11.23;;;5.05;;
30571;SDS011;17348;50.948;10.696;2023-05-29T02:39:55;8.73;;;4.93;;
30571;SDS011;17348;50.948;10.696;2023-05-29T02:42:57;13.65;;;5.25;;
30571;SDS011;17348;50.948;10.696;2023-05-29T02:46:01;10.07;;;4.63;;
30571;SDS011;17348;50.948;10.696;2023-05-29T02:49:03;13.65;;;5.00;;
30571;SDS011;17348;50.948;10.696;2023-05-29T02:52:06;9.25;;;4.40;;
30571;SDS011;17348;50.948;10.696;2023-05-29T02:55:09;10.77;;;5.20;;
30571;SDS011;17348;50.948;10.696;2023-05-29T02:58:12;12.07;;;4.50;;
30571;SDS011;17348;50.948;10.696;2023-05-29T03:01:15;13.68;;;4.75;;
30571;SDS011;17348;50.948;10.696;2023-05-29T03:04:18;8.70;;;4.40;;
30571;SDS011;17348;50.948;10.696;2023-05-29T03:07:20;15.45;;;4.72;;
30571;SDS011;17348;50.948;10.696;2023-05-29T03:10:22;11.55;;;5.50;;
30571;SDS011;17348;50.948;10.696;2023-05-29T03:13:25;15.60;;;5.45;;
30571;SDS011;17348;50.948;10.696;2023-05-29T03:16:29;15.93;;;4.70;;
30571;SDS011;17348;50.948;10.696;2023-05-29T03:19:32;9.33;;;4.50;;
30571;SDS011;17348;50.948;10.696;2023-05-29T03:22:34;11.25;;;5.03;;
30571;SDS011;17348;50.948;10.696;2023-05-29T03:25:37;19.13;;;5.18;;
30571;SDS011;17348;50.948;10.696;2023-05-29T03:28:39;18.30;;;5.18;;
30571;SDS011;17348;50.948;10.696;2023-05-29T03:31:43;18.63;;;5.37;;
30571;SDS011;17348;50.948;10.696;2023-05-29T03:34:45;10.82;;;4.97;;
30571;SDS011;17348;50.948;10.696;2023-05-29T03:37:48;10.90;;;5.28;;
30571;SDS011;17348;50.948;10.696;2023-05-29T03:40:50;15.75;;;5.10;;
30571;SDS011;17348;50.948;10.696;2023-05-29T03:43:52;11.40;;;5.00;;
30571;SDS011;17348;50.948;10.696;2023-05-29T03:46:56;9.82;;;4.53;;
30571;SDS011;17348;50.948;10.696;2023-05-29T03:49:58;13.45;;;4.78;;
30571;SDS011;17348;50.948;10.696;2023-05-29T03:53:01;12.00;;;5.32;;
30571;SDS011;17348;50.948;10.696;2023-05-29T03:56:03;12.20;;;5.13;;
30571;SDS011;17348;50.948;10.696;2023-05-29T03:59:06;9.05;;;4.15;;
30571;SDS011;17348;50.948;10.696;2023-05-29T04:02:10;12.27;;;4.85;;
30571;SDS011;17348;50.948;10.696;2023-05-29T04:05:12;10.13;;;5.20;;
30571;SDS011;17348;50.948;10.696;2023-05-29T04:08:14;7.95;;;4.03;;
30571;SDS011;17348;50.948;10.696;2023-05-29T04:11:17;10.23;;;5.25;;
30571;SDS011;17348;50.948;10.696;2023-05-29T04:14:21;13.32;;;4.78;;
30571;SDS011;17348;50.948;10.696;2023-05-29T04:17:25;8.98;;;4.18;;
30571;SDS011;17348;50.948;10.696;2023-05-29T04:20:27;15.52;;;5.28;;
30571;SDS011;17348;50.948;10.696;2023-05-29T04:23:30;11.57;;;5.55;;
30571;SDS011;17348;50.948;10.696;2023-05-29T04:26:32;7.82;;;4.20;;
30571;SDS011;17348;50.948;10.696;2023-05-29T04:29:34;8.05;;;4.38;;
30571;SDS011;17348;50.948;10.696;2023-05-29T04:32:38;8.52;;;4.05;;
30571;SDS011;17348;50.948;10.696;2023-05-29T04:35:41;11.90;;;4.68;;
30571;SDS011;17348;50.948;10.696;2023-05-29T04:38:44;9.20;;;4.65;;
30571;SDS011;17348;50.948;10.696;2023-05-29T04:41:48;16.35;;;4.55;;
30571;SDS011;17348;50.948;10.696;2023-05-29T04:44:50;8.43;;;4.20;;
30571;SDS011;17348;50.948;10.696;2023-05-29T04:47:55;10.38;;;4.95;;
30571;SDS011;17348;50.948;10.696;2023-05-29T04:50:57;9.45;;;4.57;;
30571;SDS011;17348;50.948;10.696;2023-05-29T04:54:00;7.90;;;4.65;;
30571;SDS011;17348;50.948;10.696;2023-05-29T04:57:03;8.25;;;4.82;;
30571;SDS011;17348;50.948;10.696;2023-05-29T05:00:06;10.68;;;5.07;;
30571;SDS011;17348;50.948;10.696;2023-05-29T05:03:15;11.60;;;4.72;;
30571;SDS011;17348;50.948;10.696;2023-05-29T05:06:18;9.75;;;3.88;;
30571;SDS011;17348;50.948;10.696;2023-05-29T05:09:20;15.50;;;4.78;;
30571;SDS011;17348;50.948;10.696;2023-05-29T05:12:22;11.52;;;4.82;;
30571;SDS011;17348;50.948;10.696;2023-05-29T05:15:25;11.70;;;4.82;;
30571;SDS011;17348;50.948;10.696;2023-05-29T05:18:29;12.27;;;4.47;;
30571;SDS011;17348;50.948;10.696;2023-05-29T05:21:31;11.95;;;4.90;;
30571;SDS011;17348;50.948;10.696;2023-05-29T05:24:33;10.32;;;4.70;;
30571;SDS011;17348;50.948;10.696;2023-05-29T05:27:36;10.82;;;4.43;;
30571;SDS011;17348;50.948;10.696;2023-05-29T05:30:38;10.93;;;4.32;;
30571;SDS011;17348;50.948;10.696;2023-05-29T05:33:42;9.70;;;4.75;;
30571;SDS011;17348;50.948;10.696;2023-05-29T05:36:44;8.77;;;3.83;;
30571;SDS011;17348;50.948;10.696;2023-05-29T05:39:47;12.43;;;4.50;;
30571;SDS011;17348;50.948;10.696;2023-05-29T05:42:52;9.25;;;4.22;;
30571;SDS011;17348;50.948;10.696;2023-05-29T05:45:55;15.23;;;4.50;;
30571;SDS011;17348;50.948;10.696;2023-05-29T05:48:59;14.13;;;4.53;;
30571;SDS011;17348;50.948;10.696;2023-05-29T05:52:02;17.80;;;4.28;;
30571;SDS011;17348;50.948;10.696;2023-05-29T05:55:05;13.65;;;4.57;;
30571;SDS011;17348;50.948;10.696;2023-05-29T05:58:08;11.75;;;4.45;;
30571;SDS011;17348;50.948;10.696;2023-05-29T06:01:11;10.85;;;4.18;;
30571;SDS011;17348;50.948;10.696;2023-05-29T06:04:14;11.25;;;3.58;;
30571;SDS011;17348;50.948;10.696;2023-05-29T06:07:17;14.88;;;4.65;;
30571;SDS011;17348;50.948;10.696;2023-05-29T06:10:19;10.55;;;3.88;;
30571;SDS011;17348;50.948;10.696;2023-05-29T06:13:22;10.98;;;3.47;;
30571;SDS011;17348;50.948;10.696;2023-05-29T06:16:24;6.78;;;3.38;;
30571;SDS011;17348;50.948;10.696;2023-05-29T06:19:28;17.45;;;4.00;;
30571;SDS011;17348;50.948;10.696;2023-05-29T06:22:31;10.98;;;3.78;;
30571;SDS011;17348;50.948;10.696;2023-05-29T06:25:33;9.30;;;4.30;;
30571;SDS011;17348;50.948;10.696;2023-05-29T06:28:35;12.52;;;3.60;;
30571;SDS011;17348;50.948;10.696;2023-05-29T06:31:37;11.80;;;4.30;;
30571;SDS011;17348;50.948;10.696;2023-05-29T06:34:41;13.57;;;4.45;;
30571;SDS011;17348;50.948;10.696;2023-05-29T06:37:44;14.55;;;4.40;;
30571;SDS011;17348;50.948;10.696;2023-05-29T06:40:47;12.73;;;4.65;;
30571;SDS011;17348;50.948;10.696;2023-05-29T06:43:49;11.88;;;3.92;;
30571;SDS011;17348;50.948;10.696;2023-05-29T06:46:52;12.05;;;3.72;;
30571;SDS011;17348;50.948;10.696;2023-05-29T06:49:55;15.27;;;5.00;;
30571;SDS011;17348;50.948;10.696;2023-05-29T06:52:58;12.82;;;3.75;;
30571;SDS011;17348;50.948;10.696;2023-05-29T06:56:00;12.98;;;3.88;;
30571;SDS011;17348;50.948;10.696;2023-05-29T06:59:02;12.23;;;4.35;;
30571;SDS011;17348;50.948;10.696;2023-05-29T07:02:05;10.98;;;3.88;;
30571;SDS011;17348;50.948;10.696;2023-05-29T07:05:09;12.80;;;4.03;;
30571;SDS011;17348;50.948;10.696;2023-05-29T07:08:11;15.82;;;4.95;;
30571;SDS011;17348;50.948;10.696;2023-05-29T07:11:13;15.02;;;4.65;;
30571;SDS011;17348;50.948;10.696;2023-05-29T07:14:16;9.82;;;4.47;;
30571;SDS011;17348;50.948;10.696;2023-05-29T07:17:18;15.63;;;3.90;;
30571;SDS011;17348;50.948;10.696;2023-05-29T07:20:22;14.80;;;4.65;;
30571;SDS011;17348;50.948;10.696;2023-05-29T07:23:24;13.18;;;4.35;;
30571;SDS011;17348;50.948;10.696;2023-05-29T07:26:26;11.98;;;4.80;;
30571;SDS011;17348;50.948;10.696;2023-05-29T07:29:29;19.55;;;4.55;;
30571;SDS011;17348;50.948;10.696;2023-05-29T07:32:31;10.15;;;3.50;;
30571;SDS011;17348;50.948;10.696;2023-05-29T07:35:35;14.70;;;4.88;;
30571;SDS011;17348;50.948;10.696;2023-05-29T07:38:37;9.65;;;3.85;;
30571;SDS011;17348;50.948;10.696;2023-05-29T07:41:39;11.15;;;4.35;;
30571;SDS011;17348;50.948;10.696;2023-05-29T07:44:41;17.13;;;4.00;;
30571;SDS011;17348;50.948;10.696;2023-05-29T07:47:47;16.25;;;4.60;;
30571;SDS011;17348;50.948;10.696;2023-05-29T07:50:51;10.32;;;4.03;;
30571;SDS011;17348;50.948;10.696;2023-05-29T07:53:53;12.43;;;3.72;;
30571;SDS011;17348;50.948;10.696;2023-05-29T07:56:56;8.02;;;3.47;;
30571;SDS011;17348;50.948;10.696;2023-05-29T07:59:58;10.18;;;3.53;;
30571;SDS011;17348;50.948;10.696;2023-05-29T08:03:00;12.25;;;3.72;;
30571;SDS011;17348;50.948;10.696;2023-05-29T08:06:05;8.68;;;3.60;;
30571;SDS011;17348;50.948;10.696;2023-05-29T08:09:07;10.30;;;3.45;;
30571;SDS011;17348;50.948;10.696;2023-05-29T08:12:10;7.43;;;3.60;;
30571;SDS011;17348;50.948;10.696;2023-05-29T08:15:12;9.88;;;3.75;;
30571;SDS011;17348;50.948;10.696;2023-05-29T08:18:15;11.20;;;3.53;;
30571;SDS011;17348;50.948;10.696;2023-05-29T08:21:19;14.10;;;3.83;;
30571;SDS011;17348;50.948;10.696;2023-05-29T08:24:21;13.02;;;3.50;;
30571;SDS011;17348;50.948;10.696;2023-05-29T08:27:24;7.40;;;3.33;;
30571;SDS011;17348;50.948;10.696;2023-05-29T08:30:26;12.32;;;3.38;;
30571;SDS011;17348;50.948;10.696;2023-05-29T08:33:28;11.35;;;4.03;;
30571;SDS011;17348;50.948;10.696;2023-05-29T08:36:32;11.77;;;3.63;;
30571;SDS011;17348;50.948;10.696;2023-05-29T08:39:34;10.68;;;3.47;;
30571;SDS011;17348;50.948;10.696;2023-05-29T08:42:39;9.43;;;3.42;;
30571;SDS011;17348;50.948;10.696;2023-05-29T08:45:51;14.40;;;3.78;;
30571;SDS011;17348;50.948;10.696;2023-05-29T08:48:55;14.05;;;3.63;;
30571;SDS011;17348;50.948;10.696;2023-05-29T08:52:05;7.43;;;3.10;;
30571;SDS011;17348;50.948;10.696;2023-05-29T08:55:13;10.80;;;3.97;;
30571;SDS011;17348;50.948;10.696;2023-05-29T08:58:15;12.10;;;3.80;;
30571;SDS011;17348;50.948;10.696;2023-05-29T09:01:18;14.43;;;3.55;;
30571;SDS011;17348;50.948;10.696;2023-05-29T09:04:22;11.55;;;4.47;;
30571;SDS011;17348;50.948;10.696;2023-05-29T09:07:26;11.93;;;4.13;;
30571;SDS011;17348;50.948;10.696;2023-05-29T09:10:29;14.02;;;3.72;;
30571;SDS011;17348;50.948;10.696;2023-05-29T09:13:32;10.93;;;3.63;;
30571;SDS011;17348;50.948;10.696;2023-05-29T09:16:39;10.23;;;3.47;;
30571;SDS011;17348;50.948;10.696;2023-05-29T09:19:43;11.52;;;3.83;;
30571;SDS011;17348;50.948;10.696;2023-05-29T09:22:52;8.35;;;3.42;;
30571;SDS011;17348;50.948;10.696;2023-05-29T09:25:55;14.63;;;3.78;;
30571;SDS011;17348;50.948;10.696;2023-05-29T09:28:59;16.52;;;3.65;;
30571;SDS011;17348;50.948;10.696;2023-05-29T09:32:01;9.05;;;3.53;;
30571;SDS011;17348;50.948;10.696;2023-05-29T09:35:08;13.45;;;3.17;;
30571;SDS011;17348;50.948;10.696;2023-05-29T09:38:12;10.10;;;3.70;;
30571;SDS011;17348;50.948;10.696;2023-05-29T09:41:20;14.50;;;3.47;;
30571;SDS011;17348;50.948;10.696;2023-05-29T09:44:24;6.15;;;3.25;;
30571;SDS011;17348;50.948;10.696;2023-05-29T09:47:28;12.88;;;3.65;;
30571;SDS011;17348;50.948;10.696;2023-05-29T09:50:34;8.40;;;3.15;;
30571;SDS011;17348;50.948;10.696;2023-05-29T09:53:39;10.73;;;3.40;;
30571;SDS011;17348;50.948;10.696;2023-05-29T09:56:43;8.93;;;3.22;;
30571;SDS011;17348;50.948;10.696;2023-05-29T09:59:46;11.25;;;3.83;;
30571;SDS011;17348;50.948;10.696;2023-05-29T10:02:51;8.90;;;3.40;;
30571;SDS011;17348;50.948;10.696;2023-05-29T10:05:54;7.30;;;3.10;;
30571;SDS011;17348;50.948;10.696;2023-05-29T10:09:00;10.48;;;3.42;;
30571;SDS011;17348;50.948;10.696;2023-05-29T10:12:04;8.57;;;2.90;;
30571;SDS011;17348;50.948;10.696;2023-05-29T10:15:11;6.90;;;3.20;;
30571;SDS011;17348;50.948;10.696;2023-05-29T10:18:16;9.95;;;3.40;;
30571;SDS011;17348;50.948;10.696;2023-05-29T10:21:23;10.15;;;3.78;;
30571;SDS011;17348;50.948;10.696;2023-05-29T10:24:29;7.40;;;3.50;;
30571;SDS011;17348;50.948;10.696;2023-05-29T10:27:34;6.30;;;2.55;;
30571;SDS011;17348;50.948;10.696;2023-05-29T10:30:37;9.23;;;3.17;;
30571;SDS011;17348;50.948;10.696;2023-05-29T10:33:52;7.30;;;3.33;;
30571;SDS011;17348;50.948;10.696;2023-05-29T10:37:06;16.25;;;4.00;;
30571;SDS011;17348;50.948;10.696;2023-05-29T10:40:22;8.82;;;3.40;;
30571;SDS011;17348;50.948;10.696;2023-05-29T10:43:32;9.05;;;3.30;;
30571;SDS011;17348;50.948;10.696;2023-05-29T10:50:05;14.98;;;3.60;;
30571;SDS011;17348;50.948;10.696;2023-05-29T10:53:08;9.45;;;3.33;;
30571;SDS011;17348;50.948;10.696;2023-05-29T10:56:16;9.73;;;3.15;;
30571;SDS011;17348;50.948;10.696;2023-05-29T10:59:24;9.80;;;3.25;;
30571;SDS011;17348;50.948;10.696;2023-05-29T11:02:28;8.73;;;3.38;;
30571;SDS011;17348;50.948;10.696;2023-05-29T11:05:30;7.47;;;3.08;;
30571;SDS011;17348;50.948;10.696;2023-05-29T11:08:33;11.50;;;3.45;;
30571;SDS011;17348;50.948;10.696;2023-05-29T11:11:38;8.63;;;3.55;;
30571;SDS011;17348;50.948;10.696;2023-05-29T11:14:45;10.55;;;3.30;;
30571;SDS011;17348;50.948;10.696;2023-05-29T11:17:48;9.75;;;3.15;;
30571;SDS011;17348;50.948;10.696;2023-05-29T11:20:52;12.27;;;4.22;;
30571;SDS011;17348;50.948;10.696;2023-05-29T11:24:04;9.82;;;3.58;;
30571;SDS011;17348;50.948;10.696;2023-05-29T11:27:08;11.20;;;2.92;;
30571;SDS011;17348;50.948;10.696;2023-05-29T11:30:12;7.97;;;3.17;;
30571;SDS011;17348;50.948;10.696;2023-05-29T11:33:19;9.57;;;3.22;;
30571;SDS011;17348;50.948;10.696;2023-05-29T11:36:25;16.60;;;2.97;;
30571;SDS011;17348;50.948;10.696;2023-05-29T11:39:29;8.70;;;3.38;;
30571;SDS011;17348;50.948;10.696;2023-05-29T11:42:33;6.47;;;2.65;;
30571;SDS011;17348;50.948;10.696;2023-05-29T11:45:36;8.20;;;3.58;;
30571;SDS011;17348;50.948;10.696;2023-05-29T11:48:44;7.18;;;3.05;;
30571;SDS011;17348;50.948;10.696;2023-05-29T11:51:47;7.43;;;3.22;;
30571;SDS011;17348;50.948;10.696;2023-05-29T11:54:49;7.18;;;2.78;;
30571;SDS011;17348;50.948;10.696;2023-05-29T11:57:57;9.00;;;2.70;;
30571;SDS011;17348;50.948;10.696;2023-05-29T12:01:00;6.20;;;2.80;;
30571;SDS011;17348;50.948;10.696;2023-05-29T12:04:12;9.20;;;3.08;;
30571;SDS011;17348;50.948;10.696;2023-05-29T12:07:16;7.93;;;3.10;;
30571;SDS011;17348;50.948;10.696;2023-05-29T12:10:20;8.18;;;2.90;;
30571;SDS011;17348;50.948;10.696;2023-05-29T12:13:24;8.10;;;2.75;;
30571;SDS011;17348;50.948;10.696;2023-05-29T12:16:26;6.57;;;2.30;;
30571;SDS011;17348;50.948;10.696;2023-05-29T12:19:30;6.03;;;2.58;;
30571;SDS011;17348;50.948;10.696;2023-05-29T12:22:33;10.45;;;3.13;;
30571;SDS011;17348;50.948;10.696;2023-05-29T12:25:36;7.43;;;2.55;;
30571;SDS011;17348;50.948;10.696;2023-05-29T12:28:43;6.05;;;3.28;;
30571;SDS011;17348;50.948;10.696;2023-05-29T12:31:46;9.00;;;2.35;;
30571;SDS011;17348;50.948;10.696;2023-05-29T12:34:49;10.63;;;2.80;;
30571;SDS011;17348;50.948;10.696;2023-05-29T12:37:53;10.48;;;2.70;;
30571;SDS011;17348;50.948;10.696;2023-05-29T12:40:56;8.48;;;2.75;;
30571;SDS011;17348;50.948;10.696;2023-05-29T12:44:01;5.85;;;2.97;;
30571;SDS011;17348;50.948;10.696;2023-05-29T12:47:04;9.23;;;2.78;;
30571;SDS011;17348;50.948;10.696;2023-05-29T12:53:28;6.80;;;2.72;;
30571;SDS011;17348;50.948;10.696;2023-05-29T12:56:31;10.23;;;2.55;;
30571;SDS011;17348;50.948;10.696;2023-05-29T12:59:35;5.20;;;2.42;;
30571;SDS011;17348;50.948;10.696;2023-05-29T13:02:37;10.27;;;3.08;;
30571;SDS011;17348;50.948;10.696;2023-05-29T13:05:40;4.88;;;2.35;;
30571;SDS011;17348;50.948;10.696;2023-05-29T13:08:43;9.45;;;2.97;;
30571;SDS011;17348;50.948;10.696;2023-05-29T13:11:45;5.05;;;2.90;;
30571;SDS011;17348;50.948;10.696;2023-05-29T13:14:49;9.18;;;2.90;;
30571;SDS011;17348;50.948;10.696;2023-05-29T13:17:51;5.65;;;2.42;;
30571;SDS011;17348;50.948;10.696;2023-05-29T13:20:54;8.85;;;2.20;;
30571;SDS011;17348;50.948;10.696;2023-05-29T13:23:57;6.57;;;2.58;;
30571;SDS011;17348;50.948;10.696;2023-05-29T13:26:59;12.32;;;2.58;;
30571;SDS011;17348;50.948;10.696;2023-05-29T13:30:04;14.23;;;2.60;;
30571;SDS011;17348;50.948;10.696;2023-05-29T13:33:08;7.18;;;2.55;;
30571;SDS011;17348;50.948;10.696;2023-05-29T13:36:10;6.78;;;2.80;;
30571;SDS011;17348;50.948;10.696;2023-05-29T13:39:13;7.90;;;2.40;;
30571;SDS011;17348;50.948;10.696;2023-05-29T13:42:15;7.43;;;2.25;;
30571;SDS011;17348;50.948;10.696;2023-05-29T13:45:20;6.90;;;2.65;;
30571;SDS011;17348;50.948;10.696;2023-05-29T13:48:22;5.60;;;2.50;;
30571;SDS011;17348;50.948;10.696;2023-05-29T13:51:25;7.78;;;3.00;;
30571;SDS011;17348;50.948;10.696;2023-05-29T13:54:27;5.57;;;2.80;;
30571;SDS011;17348;50.948;10.696;2023-05-29T13:57:31;10.80;;;2.95;;
30571;SDS011;17348;50.948;10.696;2023-05-29T14:00:34;10.95;;;3.20;;
30571;SDS011;17348;50.948;10.696;2023-05-29T14:03:37;7.15;;;2.60;;
30571;SDS011;17348;50.948;10.696;2023-05-29T14:06:40;5.18;;;2.10;;
30571;SDS011;17348;50.948;10.696;2023-05-29T14:09:42;6.53;;;2.75;;
30571;SDS011;17348;50.948;10.696;2023-05-29T14:12:44;7.15;;;2.70;;
30571;SDS011;17348;50.948;10.696;2023-05-29T14:15:48;6.85;;;2.67;;
30571;SDS011;17348;50.948;10.696;2023-05-29T14:18:50;5.90;;;2.15;;
30571;SDS011;17348;50.948;10.696;2023-05-29T14:21:53;6.32;;;2.53;;
30571;SDS011;17348;50.948;10.696;2023-05-29T14:24:57;5.30;;;2.13;;
30571;SDS011;17348;50.948;10.696;2023-05-29T14:28:01;9.18;;;2.88;;
30571;SDS011;17348;50.948;10.696;2023-05-29T14:31:05;5.68;;;2.72;;
30571;SDS011;17348;50.948;10.696;2023-05-29T14:34:07;5.50;;;2.60;;
30571;SDS011;17348;50.948;10.696;2023-05-29T14:37:10;8.32;;;2.75;;
30571;SDS011;17348;50.948;10.696;2023-05-29T14:40:12;4.07;;;2.40;;
30571;SDS011;17348;50.948;10.696;2023-05-29T14:43:15;5.72;;;2.47;;
30571;SDS011;17348;50.948;10.696;2023-05-29T14:46:18;7.88;;;2.42;;
30571;SDS011;17348;50.948;10.696;2023-05-29T14:49:21;6.63;;;2.55;;
30571;SDS011;17348;50.948;10.696;2023-05-29T14:52:24;5.78;;;1.85;;
30571;SDS011;17348;50.948;10.696;2023-05-29T14:55:26;5.70;;;2.38;;
30571;SDS011;17348;50.948;10.696;2023-05-29T14:58:28;4.28;;;2.40;;
30571;SDS011;17348;50.948;10.696;2023-05-29T15:01:32;6.05;;;2.70;;
30571;SDS011;17348;50.948;10.696;2023-05-29T15:04:35;7.53;;;2.40;;
30571;SDS011;17348;50.948;10.696;2023-05-29T15:07:37;6.20;;;2.30;;
30571;SDS011;17348;50.948;10.696;2023-05-29T15:10:39;9.10;;;2.10;;
30571;SDS011;17348;50.948;10.696;2023-05-29T15:13:42;12.85;;;2.08;;
30571;SDS011;17348;50.948;10.696;2023-05-29T15:16:45;7.75;;;2.92;;
30571;SDS011;17348;50.948;10.696;2023-05-29T15:19:48;8.98;;;2.92;;
30571;SDS011;17348;50.948;10.696;2023-05-29T15:22:50;7.10;;;2.38;;
30571;SDS011;17348;50.948;10.696;2023-05-29T15:25:53;8.05;;;2.65;;
30571;SDS011;17348;50.948;10.696;2023-05-29T15:28:56;3.97;;;2.45;;
30571;SDS011;17348;50.948;10.696;2023-05-29T15:32:00;10.07;;;3.22;;
30571;SDS011;17348;50.948;10.696;2023-05-29T15:35:02;9.80;;;3.13;;
30571;SDS011;17348;50.948;10.696;2023-05-29T15:38:05;9.05;;;2.55;;
30571;SDS011;17348;50.948;10.696;2023-05-29T15:41:07;4.57;;;2.20;;
30571;SDS011;17348;50.948;10.696;2023-05-29T15:44:10;5.75;;;2.50;;
30571;SDS011;17348;50.948;10.696;2023-05-29T15:47:13;12.85;;;2.70;;
30571;SDS011;17348;50.948;10.696;2023-05-29T15:50:16;5.07;;;1.98;;
30571;SDS011;17348;50.948;10.696;2023-05-29T15:53:18;10.05;;;3.25;;
30571;SDS011;17348;50.948;10.696;2023-05-29T15:56:20;6.50;;;2.40;;
30571;SDS011;17348;50.948;10.696;2023-05-29T15:59:27;5.00;;;2.67;;
30571;SDS011;17348;50.948;10.696;2023-05-29T16:02:31;6.93;;;2.35;;
30571;SDS011;17348;50.948;10.696;2023-05-29T16:05:33;9.63;;;2.85;;
30571;SDS011;17348;50.948;10.696;2023-05-29T16:08:36;5.75;;;2.65;;
30571;SDS011;17348;50.948;10.696;2023-05-29T16:11:41;6.28;;;2.60;;
30571;SDS011;17348;50.948;10.696;2023-05-29T16:14:43;4.50;;;3.00;;
30571;SDS011;17348;50.948;10.696;2023-05-29T16:17:47;7.93;;;3.10;;
30571;SDS011;17348;50.948;10.696;2023-05-29T16:20:49;10.98;;;2.90;;
30571;SDS011;17348;50.948;10.696;2023-05-29T16:23:52;12.45;;;2.97;;
30571;SDS011;17348;50.948;10.696;2023-05-29T16:26:58;7.80;;;2.20;;
30571;SDS011;17348;50.948;10.696;2023-05-29T16:30:03;4.85;;;2.80;;
30571;SDS011;17348;50.948;10.696;2023-05-29T16:33:08;6.22;;;2.92;;
30571;SDS011;17348;50.948;10.696;2023-05-29T16:36:12;6.63;;;2.78;;
30571;SDS011;17348;50.948;10.696;2023-05-29T16:39:16;7.38;;;2.92;;
30571;SDS011;17348;50.948;10.696;2023-05-29T16:42:22;7.28;;;3.03;;
30571;SDS011;17348;50.948;10.696;2023-05-29T16:45:24;9.07;;;2.88;;
30571;SDS011;17348;50.948;10.696;2023-05-29T16:48:28;4.72;;;2.42;;
30571;SDS011;17348;50.948;10.696;2023-05-29T16:51:30;6.28;;;2.70;;
30571;SDS011;17348;50.948;10.696;2023-05-29T16:54:33;9.98;;;2.90;;
30571;SDS011;17348;50.948;10.696;2023-05-29T16:57:39;5.28;;;3.33;;
30571;SDS011;17348;50.948;10.696;2023-05-29T17:00:43;7.22;;;3.60;;
30571;SDS011;17348;50.948;10.696;2023-05-29T17:03:47;8.20;;;2.95;;
30571;SDS011;17348;50.948;10.696;2023-05-29T17:06:49;7.35;;;2.88;;
30571;SDS011;17348;50.948;10.696;2023-05-29T17:09:51;7.28;;;2.63;;
30571;SDS011;17348;50.948;10.696;2023-05-29T17:12:54;6.97;;;3.30;;
30571;SDS011;17348;50.948;10.696;2023-05-29T17:15:56;6.50;;;3.20;;
30571;SDS011;17348;50.948;10.696;2023-05-29T17:19:00;4.53;;;2.85;;
30571;SDS011;17348;50.948;10.696;2023-05-29T17:22:02;4.60;;;2.40;;
30571;SDS011;17348;50.948;10.696;2023-05-29T17:25:05;5.30;;;2.75;;
30571;SDS011;17348;50.948;10.696;2023-05-29T17:28:07;17.17;;;3.03;;
30571;SDS011;17348;50.948;10.696;2023-05-29T17:31:11;9.63;;;2.88;;
30571;SDS011;17348;50.948;10.696;2023-05-29T17:34:15;5.15;;;2.35;;
30571;SDS011;17348;50.948;10.696;2023-05-29T17:37:17;5.82;;;3.30;;
30571;SDS011;17348;50.948;10.696;2023-05-29T17:40:20;10.07;;;2.85;;
30571;SDS011;17348;50.948;10.696;2023-05-29T17:43:23;7.60;;;2.88;;
30571;SDS011;17348;50.948;10.696;2023-05-29T17:46:28;7.32;;;2.85;;
30571;SDS011;17348;50.948;10.696;2023-05-29T17:49:32;10.48;;;3.60;;
30571;SDS011;17348;50.948;10.696;2023-05-29T17:52:34;6.63;;;2.63;;
30571;SDS011;17348;50.948;10.696;2023-05-29T17:55:37;6.38;;;2.90;;
30571;SDS011;17348;50.948;10.696;2023-05-29T17:58:40;6.95;;;2.63;;
30571;SDS011;17348;50.948;10.696;2023-05-29T18:01:43;7.10;;;2.60;;
30571;SDS011;17348;50.948;10.696;2023-05-29T18:04:47;10.68;;;2.88;;
30571;SDS011;17348;50.948;10.696;2023-05-29T18:07:51;8.50;;;3.10;;